createdAt,value
2022-08-17T00:00:33.327Z,23.5
2022-08-17T00:05:51.690Z,23.52
2022-08-17T00:11:23.210Z,23.66
2022-08-17T00:16:57.177Z,23.59
2022-08-17T00:22:35.401Z,23.59
2022-08-17T00:28:02.775Z,23.45
2022-08-17T00:33:34.400Z,23.25
2022-08-17T00:39:06.206Z,23.11
2022-08-17T00:44:37.955Z,23.06
2022-08-17T00:50:09.609Z,23.16
2022-08-17T00:55:41.385Z,23.06
2022-08-17T01:01:13.097Z,22.96
2022-08-17T01:06:44.772Z,22.78
2022-08-17T01:12:16.508Z,22.64
2022-08-17T01:17:48.264Z,22.41
2022-08-17T01:23:26.367Z,22.36
2022-08-17T01:28:58.116Z,22.31
2022-08-17T01:34:31.600Z,22.24
2022-08-17T01:40:01.541Z,22.18
2022-08-17T01:45:33.237Z,22.08
2022-08-17T01:51:04.982Z,21.94
2022-08-17T01:56:36.638Z,21.84
2022-08-17T02:02:08.381Z,21.83
2022-08-17T02:07:42.340Z,21.67
2022-08-17T02:13:11.960Z,21.52
2022-08-17T02:18:43.564Z,21.47
2022-08-17T02:24:58.118Z,21.36
2022-08-17T02:29:53.461Z,21.36
2022-08-17T02:35:25.132Z,21.42
2022-08-17T02:40:56.856Z,21.34
2022-08-17T02:46:28.535Z,21.43
2022-08-17T02:52:00.243Z,21.37
2022-08-17T02:57:32.056Z,21.43
2022-08-17T03:03:03.729Z,21.38
2022-08-17T03:08:35.468Z,21.25
2022-08-17T03:14:07.604Z,21.28
2022-08-17T03:19:39.617Z,21.25
2022-08-17T03:25:15.024Z,21.22
2022-08-17T03:30:46.791Z,21.05
2022-08-17T03:36:18.503Z,21.08
2022-08-17T03:41:50.212Z,21.05
2022-08-17T03:47:21.902Z,21.14
2022-08-17T03:52:53.663Z,21.1
2022-08-17T03:58:25.446Z,21.03
2022-08-17T04:03:57.059Z,20.85
2022-08-17T04:09:28.939Z,20.86
2022-08-17T04:15:00.598Z,20.95
2022-08-17T04:20:32.275Z,21.01
2022-08-17T04:26:08.418Z,20.87
2022-08-17T04:31:40.157Z,20.8
2022-08-17T04:37:11.793Z,20.85
2022-08-17T04:42:43.587Z,20.8
2022-08-17T04:48:15.278Z,20.92
2022-08-17T04:53:49.075Z,20.76
2022-08-17T04:59:18.695Z,20.49
2022-08-17T05:04:50.457Z,20.89
2022-08-17T05:10:22.155Z,21.08
2022-08-17T05:15:53.866Z,21.22
2022-08-17T05:21:25.602Z,21.27
2022-08-17T05:27:04.228Z,21.54
2022-08-17T05:32:37.644Z,21.45
2022-08-17T05:38:05.121Z,21.76
2022-08-17T05:43:36.806Z,22.02
2022-08-17T05:49:08.596Z,22.27
2022-08-17T05:54:40.251Z,22.51
2022-08-17T06:00:12.101Z,22.44
2022-08-17T06:05:43.754Z,22.93
2022-08-17T06:11:15.506Z,23.13
2022-08-17T06:16:47.182Z,23.3
2022-08-17T06:22:18.942Z,23.43
2022-08-17T06:27:57.040Z,23.65
2022-08-17T06:33:28.727Z,23.99
2022-08-17T06:39:00.458Z,24.26
2022-08-17T06:44:42.420Z,23.85
2022-08-17T06:50:03.940Z,24.62
2022-08-17T06:55:38.021Z,24.74
2022-08-17T07:01:07.436Z,24.66
2022-08-17T07:06:39.081Z,25.19
2022-08-17T07:12:10.796Z,25.69
2022-08-17T07:17:47.111Z,25.69
2022-08-17T07:23:14.238Z,26.04
2022-08-17T07:28:50.330Z,26.35
2022-08-17T07:34:22.302Z,26.52
2022-08-17T07:39:58.952Z,26.28
2022-08-17T07:45:25.590Z,26.68
2022-08-17T07:50:57.303Z,26.18
2022-08-17T07:56:29.049Z,26.43
2022-08-17T08:02:00.856Z,27.11
2022-08-17T08:07:32.374Z,27.41
2022-08-17T08:13:04.154Z,26.8
2022-08-17T08:18:38.835Z,26.83
2022-08-17T08:24:07.581Z,27.36
2022-08-17T08:29:43.682Z,27.53
2022-08-17T08:35:15.627Z,26.98
2022-08-17T08:40:47.177Z,27.09
2022-08-17T08:46:19.755Z,26.75
2022-08-17T08:51:50.948Z,26.74
2022-08-17T08:57:26.649Z,27.1
2022-08-17T09:02:55.003Z,27.25
2022-08-17T09:08:26.742Z,27.57
2022-08-17T09:13:58.431Z,27.35
2022-08-17T09:19:30.194Z,27.36
2022-08-17T09:25:01.860Z,27.14
2022-08-17T09:30:38.003Z,27.18
2022-08-17T09:36:09.692Z,26.77
2022-08-17T09:41:48.641Z,26.85
2022-08-17T09:47:13.174Z,26.88
2022-08-17T09:52:44.898Z,26.8
2022-08-17T09:58:16.635Z,27.1
2022-08-17T10:03:48.311Z,26.91
2022-08-17T10:09:20.403Z,26.61
2022-08-17T10:14:53.436Z,26.52
2022-08-17T10:20:23.494Z,26.44
2022-08-17T10:25:55.841Z,26.37
2022-08-17T10:31:35.617Z,26.31
2022-08-17T10:37:03.009Z,26.6
2022-08-17T10:42:34.773Z,26.6
2022-08-17T10:48:06.989Z,26.25
2022-08-17T10:53:38.182Z,26.32
2022-08-17T10:59:09.941Z,25.31
2022-08-17T11:04:41.657Z,24.66
2022-08-17T11:10:13.466Z,24.65
2022-08-17T11:15:45.126Z,24.32
2022-08-17T11:21:16.783Z,24.33
2022-08-17T11:26:48.569Z,24.25
2022-08-17T11:32:24.673Z,23.86
2022-08-17T11:37:56.313Z,23.72
2022-08-17T11:43:28.065Z,23.63
2022-08-17T11:48:59.833Z,23.71
2022-08-17T11:54:33.564Z,24.1
2022-08-17T12:00:03.224Z,24.22
2022-08-17T12:05:34.962Z,24.06
2022-08-17T12:11:06.656Z,24.43
2022-08-17T12:16:38.845Z,24.62
2022-08-17T12:22:10.189Z,24.8
2022-08-17T12:27:43.269Z,24.98
2022-08-17T12:33:24.936Z,25.23
2022-08-17T12:38:51.704Z,25.31
2022-08-17T12:44:23.421Z,25.39
2022-08-17T12:49:55.197Z,25.44
2022-08-17T12:55:26.888Z,25.45
2022-08-17T13:00:58.545Z,25.12
2022-08-17T13:06:30.301Z,25.22
2022-08-17T13:12:02.057Z,25.28
2022-08-17T13:17:33.829Z,25.32
2022-08-17T13:23:08.776Z,25.4
2022-08-17T13:28:37.188Z,25.66
2022-08-17T13:34:13.301Z,25.97
2022-08-17T13:39:45.150Z,26.68
2022-08-17T13:45:32.297Z,26.83
2022-08-17T13:50:48.493Z,26.97
2022-08-17T13:56:31.598Z,27.43
2022-08-17T14:01:53.979Z,27.73
2022-08-17T14:07:23.625Z,27.47
2022-08-17T14:12:55.466Z,27.99
2022-08-17T14:18:30.538Z,27.87
2022-08-17T14:23:58.797Z,27.99
2022-08-17T14:29:30.557Z,28.0
2022-08-17T14:35:06.670Z,28.26
2022-08-17T14:40:38.489Z,28.36
2022-08-17T14:46:10.158Z,28.39
2022-08-17T14:51:43.658Z,28.54
2022-08-17T14:57:23.755Z,28.62
2022-08-17T15:02:45.312Z,28.62
2022-08-17T15:08:16.991Z,28.59
2022-08-17T15:13:52.633Z,28.61
2022-08-17T15:19:20.471Z,28.65
2022-08-17T15:24:52.196Z,28.85
2022-08-17T15:30:23.871Z,28.75
2022-08-17T15:36:00.080Z,28.58
2022-08-17T15:41:31.718Z,28.47
2022-08-17T15:47:03.390Z,28.26
2022-08-17T15:52:35.188Z,28.47
2022-08-17T15:58:06.861Z,28.71
2022-08-17T16:03:46.572Z,28.7
2022-08-17T16:09:10.313Z,28.83
2022-08-17T16:14:42.059Z,28.85
2022-08-17T16:20:19.817Z,28.71
2022-08-17T16:25:52.606Z,28.72
2022-08-17T16:31:17.261Z,28.5
2022-08-17T16:36:55.839Z,28.52
2022-08-17T16:42:25.247Z,28.59
2022-08-17T16:47:56.809Z,28.46
2022-08-17T16:48:44.894Z,28.43
2022-08-17T16:54:17.715Z,28.41
2022-08-17T16:59:48.349Z,28.21
2022-08-17T17:05:20.186Z,28.07
2022-08-17T17:10:51.782Z,27.91
2022-08-17T17:16:23.513Z,27.72
2022-08-17T17:21:55.286Z,27.6
2022-08-17T17:27:26.966Z,27.49
2022-08-17T17:32:58.726Z,27.36
2022-08-17T17:38:30.491Z,27.24
2022-08-17T17:44:02.869Z,27.06
2022-08-17T17:49:38.282Z,26.91
2022-08-17T17:55:09.979Z,26.82
2022-08-17T18:00:42.079Z,26.73
2022-08-17T18:06:13.421Z,26.6
2022-08-17T18:11:45.167Z,26.47
2022-08-17T18:17:16.885Z,26.28
2022-08-17T18:22:48.615Z,26.18
2022-08-17T18:28:20.567Z,26.05
2022-08-17T18:33:52.729Z,25.95
2022-08-17T18:39:23.777Z,25.86
2022-08-17T18:44:55.729Z,25.8
2022-08-17T18:50:33.590Z,25.71
2022-08-17T18:56:05.279Z,25.61
2022-08-17T19:01:41.614Z,25.54
2022-08-17T19:07:08.789Z,25.45
2022-08-17T19:12:40.472Z,25.39
2022-08-17T19:18:15.229Z,25.41
2022-08-17T19:23:53.294Z,25.44
2022-08-17T19:29:15.732Z,25.46
2022-08-17T19:34:47.388Z,25.41
2022-08-17T19:40:35.346Z,25.31
2022-08-17T19:45:50.884Z,25.25
2022-08-17T19:51:26.971Z,25.15
2022-08-17T19:56:58.749Z,25.11
2022-08-17T20:02:30.434Z,25.1
2022-08-17T20:08:02.174Z,25.06
2022-08-17T20:13:33.992Z,25.01
2022-08-17T20:19:05.540Z,24.82
2022-08-17T20:24:37.279Z,24.75
2022-08-17T20:30:09.011Z,24.76
2022-08-17T20:35:40.740Z,24.67
2022-08-17T20:41:12.490Z,24.67
2022-08-17T20:46:44.216Z,24.56
2022-08-17T20:52:22.350Z,24.54
2022-08-17T20:57:54.040Z,24.49
2022-08-17T21:03:25.716Z,24.34
2022-08-17T21:08:57.492Z,24.27
2022-08-17T21:14:29.204Z,24.3
2022-08-17T21:20:10.686Z,24.33
2022-08-17T21:25:32.671Z,24.37
2022-08-17T21:31:04.366Z,24.37
2022-08-17T21:36:36.104Z,24.33
2022-08-17T21:42:07.787Z,24.41
2022-08-17T21:47:39.451Z,24.46
2022-08-17T21:53:29.372Z,24.48
2022-08-17T21:58:57.499Z,24.5
2022-08-17T22:04:29.407Z,24.49
2022-08-17T22:10:01.019Z,24.49
2022-08-17T22:15:34.901Z,24.46
2022-08-17T22:21:04.536Z,24.44
2022-08-17T22:26:36.122Z,24.38
2022-08-17T22:32:07.960Z,23.54
2022-08-17T22:37:39.551Z,23.22
2022-08-17T22:43:11.303Z,23.24
2022-08-17T22:48:43.344Z,23.13
2022-08-17T22:54:19.188Z,22.82
2022-08-17T22:59:50.853Z,22.69
2022-08-17T23:05:22.552Z,22.69
2022-08-17T23:10:54.348Z,22.83
2022-08-17T23:16:26.049Z,22.87
2022-08-17T23:21:58.089Z,23.13
2022-08-17T23:27:29.485Z,22.95
2022-08-17T23:33:01.223Z,22.72
2022-08-17T23:38:32.914Z,22.83
2022-08-17T23:44:04.647Z,22.85
2022-08-17T23:49:36.363Z,22.7
2022-08-17T23:55:12.480Z,22.72
